sensor_id;sensor_type;location;lat;lon;timestamp;P1;durP1;ratioP1;P2;durP2;ratioP2
4839;SDS011;2434;48.486;7.964;2023-05-10T00:01:38;3.73;;;1.00;;
4839;SDS011;2434;48.486;7.964;2023-05-10T00:04:06;2.67;;;0.90;;
4839;SDS011;2434;48.486;7.964;2023-05-10T00:06:35;1.53;;;0.80;;
4839;SDS011;2434;48.486;7.964;2023-05-10T00:09:04;1.73;;;0.90;;
4839;SDS011;2434;48.486;7.964;2023-05-10T00:11:32;4.70;;;1.10;;
4839;SDS011;2434;48.486;7.964;2023-05-10T00:14:00;2.97;;;0.90;;
4839;SDS011;2434;48.486;7.964;2023-05-10T00:16:29;2.13;;;0.97;;
4839;SDS011;2434;48.486;7.964;2023-05-10T00:18:57;1.63;;;0.60;;
4839;SDS011;2434;48.486;7.964;2023-05-10T00:21:25;1.60;;;1.00;;
4839;SDS011;2434;48.486;7.964;2023-05-10T00:23:54;3.57;;;0.90;;
4839;SDS011;2434;48.486;7.964;2023-05-10T00:26:24;5.07;;;0.70;;
4839;SDS011;2434;48.486;7.964;2023-05-10T00:28:54;2.30;;;1.00;;
4839;SDS011;2434;48.486;7.964;2023-05-10T00:31:23;4.20;;;0.90;;
4839;SDS011;2434;48.486;7.964;2023-05-10T00:33:51;1.63;;;0.90;;
4839;SDS011;2434;48.486;7.964;2023-05-10T00:36:19;3.50;;;1.23;;
4839;SDS011;2434;48.486;7.964;2023-05-10T00:38:48;1.43;;;1.00;;
4839;SDS011;2434;48.486;7.964;2023-05-10T00:41:16;1.30;;;0.77;;
4839;SDS011;2434;48.486;7.964;2023-05-10T00:43:47;2.50;;;0.90;;
4839;SDS011;2434;48.486;7.964;2023-05-10T00:46:15;1.67;;;0.80;;
4839;SDS011;2434;48.486;7.964;2023-05-10T00:48:44;1.53;;;1.00;;
4839;SDS011;2434;48.486;7.964;2023-05-10T00:51:12;4.23;;;1.50;;
4839;SDS011;2434;48.486;7.964;2023-05-10T00:53:41;2.50;;;0.90;;
4839;SDS011;2434;48.486;7.964;2023-05-10T00:56:10;1.53;;;0.90;;
4839;SDS011;2434;48.486;7.964;2023-05-10T00:58:39;6.80;;;1.20;;
4839;SDS011;2434;48.486;7.964;2023-05-10T01:01:08;1.40;;;1.00;;
4839;SDS011;2434;48.486;7.964;2023-05-10T01:03:37;1.60;;;1.07;;
4839;SDS011;2434;48.486;7.964;2023-05-10T01:06:07;1.80;;;1.10;;
4839;SDS011;2434;48.486;7.964;2023-05-10T01:08:37;3.60;;;1.27;;
4839;SDS011;2434;48.486;7.964;2023-05-10T01:11:06;2.10;;;1.37;;
4839;SDS011;2434;48.486;7.964;2023-05-10T01:13:36;2.80;;;0.90;;
4839;SDS011;2434;48.486;7.964;2023-05-10T01:16:06;1.40;;;0.90;;
4839;SDS011;2434;48.486;7.964;2023-05-10T01:18:36;1.33;;;0.90;;
4839;SDS011;2434;48.486;7.964;2023-05-10T01:21:13;1.53;;;0.60;;
4839;SDS011;2434;48.486;7.964;2023-05-10T01:23:53;1.23;;;0.80;;
4839;SDS011;2434;48.486;7.964;2023-05-10T01:26:52;3.43;;;1.07;;
4839;SDS011;2434;48.486;7.964;2023-05-10T01:29:47;3.70;;;0.93;;
4839;SDS011;2434;48.486;7.964;2023-05-10T01:32:44;1.73;;;0.80;;
4839;SDS011;2434;48.486;7.964;2023-05-10T01:35:21;4.97;;;0.97;;
4839;SDS011;2434;48.486;7.964;2023-05-10T01:37:59;1.60;;;1.10;;
4839;SDS011;2434;48.486;7.964;2023-05-10T01:40:37;1.60;;;1.00;;
4839;SDS011;2434;48.486;7.964;2023-05-10T01:43:11;1.20;;;0.77;;
4839;SDS011;2434;48.486;7.964;2023-05-10T01:45:46;1.57;;;0.80;;
4839;SDS011;2434;48.486;7.964;2023-05-10T01:48:22;1.47;;;0.97;;
4839;SDS011;2434;48.486;7.964;2023-05-10T01:50:52;1.67;;;0.80;;
4839;SDS011;2434;48.486;7.964;2023-05-10T01:53:20;1.50;;;0.70;;
4839;SDS011;2434;48.486;7.964;2023-05-10T01:55:50;1.40;;;0.90;;
4839;SDS011;2434;48.486;7.964;2023-05-10T01:58:22;1.20;;;0.80;;
4839;SDS011;2434;48.486;7.964;2023-05-10T02:00:54;1.57;;;1.00;;
4839;SDS011;2434;48.486;7.964;2023-05-10T02:03:26;1.87;;;0.70;;
4839;SDS011;2434;48.486;7.964;2023-05-10T02:05:56;5.30;;;0.83;;
4839;SDS011;2434;48.486;7.964;2023-05-10T02:08:26;1.50;;;0.70;;
4839;SDS011;2434;48.486;7.964;2023-05-10T02:10:56;3.77;;;0.80;;
4839;SDS011;2434;48.486;7.964;2023-05-10T02:13:26;3.50;;;0.90;;
4839;SDS011;2434;48.486;7.964;2023-05-10T02:15:57;1.77;;;0.80;;
4839;SDS011;2434;48.486;7.964;2023-05-10T02:18:28;2.00;;;1.20;;
4839;SDS011;2434;48.486;7.964;2023-05-10T02:20:57;2.00;;;1.00;;
4839;SDS011;2434;48.486;7.964;2023-05-10T02:23:26;3.00;;;1.20;;
4839;SDS011;2434;48.486;7.964;2023-05-10T02:25:56;2.20;;;0.90;;
4839;SDS011;2434;48.486;7.964;2023-05-10T02:28:27;2.27;;;0.80;;
4839;SDS011;2434;48.486;7.964;2023-05-10T02:30:56;2.77;;;0.97;;
4839;SDS011;2434;48.486;7.964;2023-05-10T02:33:25;7.07;;;1.33;;
4839;SDS011;2434;48.486;7.964;2023-05-10T02:35:57;1.90;;;0.97;;
4839;SDS011;2434;48.486;7.964;2023-05-10T02:38:26;2.00;;;0.83;;
4839;SDS011;2434;48.486;7.964;2023-05-10T02:40:55;1.30;;;0.90;;
4839;SDS011;2434;48.486;7.964;2023-05-10T02:43:24;2.07;;;0.87;;
4839;SDS011;2434;48.486;7.964;2023-05-10T02:45:55;1.93;;;0.80;;
4839;SDS011;2434;48.486;7.964;2023-05-10T02:48:23;1.73;;;0.90;;
4839;SDS011;2434;48.486;7.964;2023-05-10T02:50:53;1.83;;;1.00;;
4839;SDS011;2434;48.486;7.964;2023-05-10T02:53:25;3.40;;;1.10;;
4839;SDS011;2434;48.486;7.964;2023-05-10T02:55:59;3.17;;;1.10;;
4839;SDS011;2434;48.486;7.964;2023-05-10T02:58:33;2.20;;;1.10;;
4839;SDS011;2434;48.486;7.964;2023-05-10T03:01:02;1.60;;;0.93;;
4839;SDS011;2434;48.486;7.964;2023-05-10T03:03:30;1.40;;;0.80;;
4839;SDS011;2434;48.486;7.964;2023-05-10T03:06:00;4.60;;;0.90;;
4839;SDS011;2434;48.486;7.964;2023-05-10T03:08:28;3.27;;;1.00;;
4839;SDS011;2434;48.486;7.964;2023-05-10T03:11:06;3.73;;;0.97;;
4839;SDS011;2434;48.486;7.964;2023-05-10T03:13:47;2.80;;;0.90;;
4839;SDS011;2434;48.486;7.964;2023-05-10T03:16:25;3.73;;;1.33;;
4839;SDS011;2434;48.486;7.964;2023-05-10T03:19:00;2.80;;;0.70;;
4839;SDS011;2434;48.486;7.964;2023-05-10T03:21:35;3.27;;;1.27;;
4839;SDS011;2434;48.486;7.964;2023-05-10T03:24:07;1.30;;;0.90;;
4839;SDS011;2434;48.486;7.964;2023-05-10T03:26:39;1.43;;;0.80;;
4839;SDS011;2434;48.486;7.964;2023-05-10T03:29:15;2.27;;;0.90;;
4839;SDS011;2434;48.486;7.964;2023-05-10T03:31:44;2.53;;;0.80;;
4839;SDS011;2434;48.486;7.964;2023-05-10T03:34:13;2.40;;;1.10;;
4839;SDS011;2434;48.486;7.964;2023-05-10T03:36:44;3.63;;;1.30;;
4839;SDS011;2434;48.486;7.964;2023-05-10T03:39:12;2.90;;;1.10;;
4839;SDS011;2434;48.486;7.964;2023-05-10T03:41:42;4.77;;;1.37;;
4839;SDS011;2434;48.486;7.964;2023-05-10T03:44:10;1.33;;;1.03;;
4839;SDS011;2434;48.486;7.964;2023-05-10T03:46:38;2.13;;;1.30;;
4839;SDS011;2434;48.486;7.964;2023-05-10T03:49:07;2.43;;;1.43;;
4839;SDS011;2434;48.486;7.964;2023-05-10T03:51:35;2.77;;;1.40;;
4839;SDS011;2434;48.486;7.964;2023-05-10T03:54:05;4.63;;;1.20;;
4839;SDS011;2434;48.486;7.964;2023-05-10T03:56:33;6.73;;;1.23;;
4839;SDS011;2434;48.486;7.964;2023-05-10T03:59:01;1.47;;;1.00;;
4839;SDS011;2434;48.486;7.964;2023-05-10T04:01:33;2.53;;;1.10;;
4839;SDS011;2434;48.486;7.964;2023-05-10T04:04:02;2.33;;;1.23;;
4839;SDS011;2434;48.486;7.964;2023-05-10T04:06:30;6.73;;;1.10;;
4839;SDS011;2434;48.486;7.964;2023-05-10T04:08:59;2.93;;;1.40;;
4839;SDS011;2434;48.486;7.964;2023-05-10T04:11:31;5.73;;;1.40;;
4839;SDS011;2434;48.486;7.964;2023-05-10T04:13:59;4.23;;;1.20;;
4839;SDS011;2434;48.486;7.964;2023-05-10T04:16:27;2.77;;;1.73;;
4839;SDS011;2434;48.486;7.964;2023-05-10T04:18:56;6.57;;;1.20;;
4839;SDS011;2434;48.486;7.964;2023-05-10T04:21:24;3.30;;;1.07;;
4839;SDS011;2434;48.486;7.964;2023-05-10T04:23:53;2.33;;;1.03;;
4839;SDS011;2434;48.486;7.964;2023-05-10T04:26:21;3.57;;;1.33;;
4839;SDS011;2434;48.486;7.964;2023-05-10T04:28:51;2.30;;;1.00;;
4839;SDS011;2434;48.486;7.964;2023-05-10T04:31:19;1.87;;;0.90;;
4839;SDS011;2434;48.486;7.964;2023-05-10T04:33:48;2.30;;;1.37;;
4839;SDS011;2434;48.486;7.964;2023-05-10T04:36:16;2.40;;;1.07;;
4839;SDS011;2434;48.486;7.964;2023-05-10T04:38:44;2.50;;;1.10;;
4839;SDS011;2434;48.486;7.964;2023-05-10T04:41:12;4.70;;;1.20;;
4839;SDS011;2434;48.486;7.964;2023-05-10T04:43:40;3.43;;;1.10;;
4839;SDS011;2434;48.486;7.964;2023-05-10T04:46:10;5.60;;;1.20;;
4839;SDS011;2434;48.486;7.964;2023-05-10T04:48:38;1.70;;;1.10;;
4839;SDS011;2434;48.486;7.964;2023-05-10T04:51:06;3.50;;;1.50;;
4839;SDS011;2434;48.486;7.964;2023-05-10T04:53:34;4.30;;;1.27;;
4839;SDS011;2434;48.486;7.964;2023-05-10T04:56:03;2.63;;;1.10;;
4839;SDS011;2434;48.486;7.964;2023-05-10T04:58:31;4.17;;;1.20;;
4839;SDS011;2434;48.486;7.964;2023-05-10T05:01:04;1.30;;;0.80;;
4839;SDS011;2434;48.486;7.964;2023-05-10T05:03:35;3.63;;;1.20;;
4839;SDS011;2434;48.486;7.964;2023-05-10T05:06:03;1.87;;;1.27;;
4839;SDS011;2434;48.486;7.964;2023-05-10T05:08:31;3.57;;;1.40;;
4839;SDS011;2434;48.486;7.964;2023-05-10T05:11:00;4.70;;;2.20;;
4839;SDS011;2434;48.486;7.964;2023-05-10T05:13:28;3.57;;;1.00;;
4839;SDS011;2434;48.486;7.964;2023-05-10T05:15:56;2.30;;;1.20;;
4839;SDS011;2434;48.486;7.964;2023-05-10T05:18:24;7.87;;;1.67;;
4839;SDS011;2434;48.486;7.964;2023-05-10T05:20:54;2.53;;;1.30;;
4839;SDS011;2434;48.486;7.964;2023-05-10T05:23:22;1.30;;;1.03;;
4839;SDS011;2434;48.486;7.964;2023-05-10T05:25:51;4.50;;;1.30;;
4839;SDS011;2434;48.486;7.964;2023-05-10T05:28:19;4.20;;;1.90;;
4839;SDS011;2434;48.486;7.964;2023-05-10T05:30:48;2.47;;;1.30;;
4839;SDS011;2434;48.486;7.964;2023-05-10T05:33:16;1.73;;;1.50;;
4839;SDS011;2434;48.486;7.964;2023-05-10T05:35:44;1.77;;;1.37;;
4839;SDS011;2434;48.486;7.964;2023-05-10T05:38:18;3.10;;;1.37;;
4839;SDS011;2434;48.486;7.964;2023-05-10T05:40:46;2.20;;;1.03;;
4839;SDS011;2434;48.486;7.964;2023-05-10T05:43:15;5.27;;;1.70;;
4839;SDS011;2434;48.486;7.964;2023-05-10T05:45:43;4.33;;;1.40;;
4839;SDS011;2434;48.486;7.964;2023-05-10T05:48:11;3.50;;;1.57;;
4839;SDS011;2434;48.486;7.964;2023-05-10T05:50:39;2.30;;;1.43;;
4839;SDS011;2434;48.486;7.964;2023-05-10T05:53:08;3.93;;;1.60;;
4839;SDS011;2434;48.486;7.964;2023-05-10T05:55:38;2.73;;;1.40;;
4839;SDS011;2434;48.486;7.964;2023-05-10T05:58:06;2.60;;;1.47;;
4839;SDS011;2434;48.486;7.964;2023-05-10T06:00:34;4.00;;;1.60;;
4839;SDS011;2434;48.486;7.964;2023-05-10T06:03:03;2.77;;;1.77;;
4839;SDS011;2434;48.486;7.964;2023-05-10T06:05:31;2.97;;;1.57;;
4839;SDS011;2434;48.486;7.964;2023-05-10T06:07:59;5.03;;;1.83;;
4839;SDS011;2434;48.486;7.964;2023-05-10T06:10:27;4.03;;;1.70;;
4839;SDS011;2434;48.486;7.964;2023-05-10T06:12:58;5.03;;;1.67;;
4839;SDS011;2434;48.486;7.964;2023-05-10T06:15:26;3.60;;;2.20;;
4839;SDS011;2434;48.486;7.964;2023-05-10T06:17:54;4.20;;;1.80;;
4839;SDS011;2434;48.486;7.964;2023-05-10T06:20:23;4.90;;;1.97;;
4839;SDS011;2434;48.486;7.964;2023-05-10T06:22:51;2.00;;;1.37;;
4839;SDS011;2434;48.486;7.964;2023-05-10T06:25:19;3.63;;;1.63;;
4839;SDS011;2434;48.486;7.964;2023-05-10T06:27:48;3.00;;;1.60;;
4839;SDS011;2434;48.486;7.964;2023-05-10T06:30:20;4.53;;;2.23;;
4839;SDS011;2434;48.486;7.964;2023-05-10T06:32:53;3.60;;;2.43;;
4839;SDS011;2434;48.486;7.964;2023-05-10T06:35:22;2.40;;;1.57;;
4839;SDS011;2434;48.486;7.964;2023-05-10T06:37:51;3.40;;;1.93;;
4839;SDS011;2434;48.486;7.964;2023-05-10T06:40:19;4.10;;;1.77;;
4839;SDS011;2434;48.486;7.964;2023-05-10T06:42:47;4.90;;;1.60;;
4839;SDS011;2434;48.486;7.964;2023-05-10T06:45:16;1.60;;;1.47;;
4839;SDS011;2434;48.486;7.964;2023-05-10T06:47:46;1.67;;;1.40;;
4839;SDS011;2434;48.486;7.964;2023-05-10T06:50:15;7.10;;;1.50;;
4839;SDS011;2434;48.486;7.964;2023-05-10T06:52:43;3.27;;;1.57;;
4839;SDS011;2434;48.486;7.964;2023-05-10T06:55:11;6.17;;;1.60;;
4839;SDS011;2434;48.486;7.964;2023-05-10T06:57:39;2.10;;;1.50;;
4839;SDS011;2434;48.486;7.964;2023-05-10T07:00:08;3.53;;;1.63;;
4839;SDS011;2434;48.486;7.964;2023-05-10T07:02:37;4.20;;;1.80;;
4839;SDS011;2434;48.486;7.964;2023-05-10T07:05:07;5.70;;;1.50;;
4839;SDS011;2434;48.486;7.964;2023-05-10T07:07:36;2.10;;;1.20;;
4839;SDS011;2434;48.486;7.964;2023-05-10T07:10:04;4.00;;;1.43;;
4839;SDS011;2434;48.486;7.964;2023-05-10T07:12:33;3.10;;;1.57;;
4839;SDS011;2434;48.486;7.964;2023-05-10T07:15:01;2.70;;;1.70;;
4839;SDS011;2434;48.486;7.964;2023-05-10T07:17:30;3.00;;;1.20;;
4839;SDS011;2434;48.486;7.964;2023-05-10T07:19:59;3.93;;;1.70;;
4839;SDS011;2434;48.486;7.964;2023-05-10T07:22:29;2.63;;;1.57;;
4839;SDS011;2434;48.486;7.964;2023-05-10T07:24:57;1.47;;;1.13;;
4839;SDS011;2434;48.486;7.964;2023-05-10T07:27:25;2.80;;;1.83;;
4839;SDS011;2434;48.486;7.964;2023-05-10T07:29:54;8.30;;;2.00;;
4839;SDS011;2434;48.486;7.964;2023-05-10T07:32:22;2.90;;;1.60;;
4839;SDS011;2434;48.486;7.964;2023-05-10T07:34:51;3.30;;;2.17;;
4839;SDS011;2434;48.486;7.964;2023-05-10T07:37:19;1.90;;;1.40;;
4839;SDS011;2434;48.486;7.964;2023-05-10T07:39:49;2.87;;;1.60;;
4839;SDS011;2434;48.486;7.964;2023-05-10T07:42:17;2.83;;;1.57;;
4839;SDS011;2434;48.486;7.964;2023-05-10T07:44:46;4.33;;;1.43;;
4839;SDS011;2434;48.486;7.964;2023-05-10T07:47:14;7.23;;;1.83;;
4839;SDS011;2434;48.486;7.964;2023-05-10T07:49:42;1.97;;;1.23;;
4839;SDS011;2434;48.486;7.964;2023-05-10T07:52:11;4.40;;;1.47;;
4839;SDS011;2434;48.486;7.964;2023-05-10T07:54:39;2.10;;;1.20;;
4839;SDS011;2434;48.486;7.964;2023-05-10T07:57:09;2.30;;;1.40;;
4839;SDS011;2434;48.486;7.964;2023-05-10T07:59:40;5.20;;;2.17;;
4839;SDS011;2434;48.486;7.964;2023-05-10T08:02:09;2.13;;;1.80;;
4839;SDS011;2434;48.486;7.964;2023-05-10T08:04:37;3.23;;;1.70;;
4839;SDS011;2434;48.486;7.964;2023-05-10T08:07:06;2.97;;;2.30;;
4839;SDS011;2434;48.486;7.964;2023-05-10T08:09:34;2.37;;;1.40;;
4839;SDS011;2434;48.486;7.964;2023-05-10T08:12:03;1.93;;;1.20;;
4839;SDS011;2434;48.486;7.964;2023-05-10T08:14:34;6.03;;;1.53;;
4839;SDS011;2434;48.486;7.964;2023-05-10T08:17:03;2.20;;;1.30;;
4839;SDS011;2434;48.486;7.964;2023-05-10T08:19:31;2.47;;;1.57;;
4839;SDS011;2434;48.486;7.964;2023-05-10T08:21:59;4.20;;;2.60;;
4839;SDS011;2434;48.486;7.964;2023-05-10T08:24:28;6.10;;;1.40;;
4839;SDS011;2434;48.486;7.964;2023-05-10T08:26:56;3.73;;;1.53;;
4839;SDS011;2434;48.486;7.964;2023-05-10T08:29:24;6.70;;;2.13;;
4839;SDS011;2434;48.486;7.964;2023-05-10T08:31:59;3.80;;;1.57;;
4839;SDS011;2434;48.486;7.964;2023-05-10T08:34:28;2.40;;;1.70;;
4839;SDS011;2434;48.486;7.964;2023-05-10T08:36:57;5.57;;;1.30;;
4839;SDS011;2434;48.486;7.964;2023-05-10T08:39:25;3.27;;;1.57;;
4839;SDS011;2434;48.486;7.964;2023-05-10T08:41:57;4.90;;;1.13;;
4839;SDS011;2434;48.486;7.964;2023-05-10T08:44:29;3.30;;;1.20;;
4839;SDS011;2434;48.486;7.964;2023-05-10T08:47:00;4.97;;;0.87;;
4839;SDS011;2434;48.486;7.964;2023-05-10T08:49:32;2.30;;;0.70;;
4839;SDS011;2434;48.486;7.964;2023-05-10T08:52:02;15.67;;;1.30;;
4839;SDS011;2434;48.486;7.964;2023-05-10T08:54:32;3.73;;;0.80;;
4839;SDS011;2434;48.486;7.964;2023-05-10T08:57:00;3.27;;;1.00;;
4839;SDS011;2434;48.486;7.964;2023-05-10T08:59:29;3.17;;;1.20;;
4839;SDS011;2434;48.486;7.964;2023-05-10T09:01:58;2.10;;;0.80;;
4839;SDS011;2434;48.486;7.964;2023-05-10T09:04:29;2.60;;;1.00;;
4839;SDS011;2434;48.486;7.964;2023-05-10T09:06:58;1.97;;;0.90;;
4839;SDS011;2434;48.486;7.964;2023-05-10T09:09:26;2.03;;;1.00;;
4839;SDS011;2434;48.486;7.964;2023-05-10T09:11:55;2.20;;;0.73;;
4839;SDS011;2434;48.486;7.964;2023-05-10T09:14:24;2.70;;;0.80;;
4839;SDS011;2434;48.486;7.964;2023-05-10T09:16:53;2.70;;;0.80;;
4839;SDS011;2434;48.486;7.964;2023-05-10T09:19:23;1.43;;;0.80;;
4839;SDS011;2434;48.486;7.964;2023-05-10T09:21:51;1.67;;;0.73;;
4839;SDS011;2434;48.486;7.964;2023-05-10T09:24:19;1.53;;;0.90;;
4839;SDS011;2434;48.486;7.964;2023-05-10T09:26:53;3.20;;;1.27;;
4839;SDS011;2434;48.486;7.964;2023-05-10T09:29:24;2.20;;;1.10;;
4839;SDS011;2434;48.486;7.964;2023-05-10T09:31:52;3.63;;;0.90;;
4839;SDS011;2434;48.486;7.964;2023-05-10T09:34:28;3.60;;;1.00;;
4839;SDS011;2434;48.486;7.964;2023-05-10T09:36:57;3.00;;;1.07;;
4839;SDS011;2434;48.486;7.964;2023-05-10T09:39:31;2.73;;;0.80;;
4839;SDS011;2434;48.486;7.964;2023-05-10T09:42:01;1.90;;;1.03;;
4839;SDS011;2434;48.486;7.964;2023-05-10T09:44:31;2.70;;;1.30;;
4839;SDS011;2434;48.486;7.964;2023-05-10T09:46:59;3.20;;;0.93;;
4839;SDS011;2434;48.486;7.964;2023-05-10T09:49:29;2.10;;;1.00;;
4839;SDS011;2434;48.486;7.964;2023-05-10T09:52:01;1.30;;;1.00;;
4839;SDS011;2434;48.486;7.964;2023-05-10T09:54:32;3.60;;;1.00;;
4839;SDS011;2434;48.486;7.964;2023-05-10T09:57:01;6.10;;;0.93;;
4839;SDS011;2434;48.486;7.964;2023-05-10T09:59:32;2.00;;;1.20;;
4839;SDS011;2434;48.486;7.964;2023-05-10T10:02:01;2.60;;;0.60;;
4839;SDS011;2434;48.486;7.964;2023-05-10T10:04:31;1.90;;;1.00;;
4839;SDS011;2434;48.486;7.964;2023-05-10T10:07:05;3.00;;;0.93;;
4839;SDS011;2434;48.486;7.964;2023-05-10T10:09:34;4.10;;;1.30;;
4839;SDS011;2434;48.486;7.964;2023-05-10T10:12:02;1.23;;;0.63;;
4839;SDS011;2434;48.486;7.964;2023-05-10T10:14:31;2.83;;;1.10;;
4839;SDS011;2434;48.486;7.964;2023-05-10T10:17:00;8.20;;;1.07;;
4839;SDS011;2434;48.486;7.964;2023-05-10T10:19:34;3.37;;;0.90;;
4839;SDS011;2434;48.486;7.964;2023-05-10T10:22:03;3.57;;;1.00;;
4839;SDS011;2434;48.486;7.964;2023-05-10T10:24:32;3.40;;;1.33;;
4839;SDS011;2434;48.486;7.964;2023-05-10T10:27:02;3.20;;;1.07;;
4839;SDS011;2434;48.486;7.964;2023-05-10T10:29:39;2.20;;;0.90;;
4839;SDS011;2434;48.486;7.964;2023-05-10T10:32:19;4.07;;;0.90;;
4839;SDS011;2434;48.486;7.964;2023-05-10T10:34:55;4.83;;;1.17;;
4839;SDS011;2434;48.486;7.964;2023-05-10T10:37:23;2.67;;;0.90;;
4839;SDS011;2434;48.486;7.964;2023-05-10T10:40:23;2.17;;;1.17;;
4839;SDS011;2434;48.486;7.964;2023-05-10T10:42:52;8.00;;;1.30;;
4839;SDS011;2434;48.486;7.964;2023-05-10T10:45:22;2.40;;;1.10;;
4839;SDS011;2434;48.486;7.964;2023-05-10T10:47:53;2.63;;;1.00;;
4839;SDS011;2434;48.486;7.964;2023-05-10T10:50:55;2.17;;;1.03;;
4839;SDS011;2434;48.486;7.964;2023-05-10T10:53:25;5.93;;;0.93;;
4839;SDS011;2434;48.486;7.964;2023-05-10T10:56:02;3.10;;;0.70;;
4839;SDS011;2434;48.486;7.964;2023-05-10T10:58:34;2.30;;;0.90;;
4839;SDS011;2434;48.486;7.964;2023-05-10T11:01:09;4.27;;;0.90;;
4839;SDS011;2434;48.486;7.964;2023-05-10T11:03:39;3.63;;;0.90;;
4839;SDS011;2434;48.486;7.964;2023-05-10T11:06:09;2.57;;;0.80;;
4839;SDS011;2434;48.486;7.964;2023-05-10T11:08:41;2.13;;;0.70;;
4839;SDS011;2434;48.486;7.964;2023-05-10T11:11:14;3.43;;;1.03;;
4839;SDS011;2434;48.486;7.964;2023-05-10T11:13:43;3.10;;;0.80;;
4839;SDS011;2434;48.486;7.964;2023-05-10T11:16:17;2.60;;;0.73;;
4839;SDS011;2434;48.486;7.964;2023-05-10T11:18:53;3.20;;;0.60;;
4839;SDS011;2434;48.486;7.964;2023-05-10T11:21:26;2.70;;;0.87;;
4839;SDS011;2434;48.486;7.964;2023-05-10T11:23:55;2.50;;;0.77;;
4839;SDS011;2434;48.486;7.964;2023-05-10T11:26:24;2.70;;;0.87;;
4839;SDS011;2434;48.486;7.964;2023-05-10T11:28:53;2.30;;;0.73;;
4839;SDS011;2434;48.486;7.964;2023-05-10T11:31:22;3.93;;;0.73;;
4839;SDS011;2434;48.486;7.964;2023-05-10T11:33:53;1.30;;;0.60;;
4839;SDS011;2434;48.486;7.964;2023-05-10T11:36:24;2.17;;;0.60;;
4839;SDS011;2434;48.486;7.964;2023-05-10T11:38:55;4.60;;;0.90;;
4839;SDS011;2434;48.486;7.964;2023-05-10T11:41:24;5.27;;;0.70;;
4839;SDS011;2434;48.486;7.964;2023-05-10T11:43:54;4.37;;;0.90;;
4839;SDS011;2434;48.486;7.964;2023-05-10T11:46:23;0.90;;;0.40;;
4839;SDS011;2434;48.486;7.964;2023-05-10T11:48:53;2.50;;;0.90;;
4839;SDS011;2434;48.486;7.964;2023-05-10T11:51:24;1.83;;;0.70;;
4839;SDS011;2434;48.486;7.964;2023-05-10T11:53:54;2.40;;;0.80;;
4839;SDS011;2434;48.486;7.964;2023-05-10T11:56:24;1.17;;;0.70;;
4839;SDS011;2434;48.486;7.964;2023-05-10T11:58:53;2.00;;;0.70;;
4839;SDS011;2434;48.486;7.964;2023-05-10T12:01:23;1.50;;;0.80;;
4839;SDS011;2434;48.486;7.964;2023-05-10T12:03:53;2.47;;;1.03;;
4839;SDS011;2434;48.486;7.964;2023-05-10T12:06:27;1.20;;;0.63;;
4839;SDS011;2434;48.486;7.964;2023-05-10T12:08:58;1.53;;;0.53;;
4839;SDS011;2434;48.486;7.964;2023-05-10T12:11:27;3.10;;;0.70;;
4839;SDS011;2434;48.486;7.964;2023-05-10T12:13:57;1.80;;;0.67;;
4839;SDS011;2434;48.486;7.964;2023-05-10T12:16:26;2.33;;;0.70;;
4839;SDS011;2434;48.486;7.964;2023-05-10T12:18:57;2.23;;;0.63;;
4839;SDS011;2434;48.486;7.964;2023-05-10T12:21:29;3.77;;;0.80;;
4839;SDS011;2434;48.486;7.964;2023-05-10T12:23:59;5.77;;;0.63;;
4839;SDS011;2434;48.486;7.964;2023-05-10T12:26:29;2.20;;;0.57;;
4839;SDS011;2434;48.486;7.964;2023-05-10T12:29:11;6.20;;;0.63;;
4839;SDS011;2434;48.486;7.964;2023-05-10T12:31:52;1.93;;;0.50;;
4839;SDS011;2434;48.486;7.964;2023-05-10T12:34:23;1.20;;;0.70;;
4839;SDS011;2434;48.486;7.964;2023-05-10T12:36:53;1.03;;;0.50;;
4839;SDS011;2434;48.486;7.964;2023-05-10T12:39:22;4.23;;;0.77;;
4839;SDS011;2434;48.486;7.964;2023-05-10T12:41:50;2.80;;;0.70;;
4839;SDS011;2434;48.486;7.964;2023-05-10T12:44:19;2.17;;;0.90;;
4839;SDS011;2434;48.486;7.964;2023-05-10T12:46:47;5.20;;;0.80;;
4839;SDS011;2434;48.486;7.964;2023-05-10T12:49:15;2.33;;;0.87;;
4839;SDS011;2434;48.486;7.964;2023-05-10T12:51:45;2.80;;;0.70;;
4839;SDS011;2434;48.486;7.964;2023-05-10T12:54:14;1.30;;;0.50;;
4839;SDS011;2434;48.486;7.964;2023-05-10T12:56:42;1.20;;;0.60;;
4839;SDS011;2434;48.486;7.964;2023-05-10T12:59:11;2.70;;;0.60;;
4839;SDS011;2434;48.486;7.964;2023-05-10T13:01:39;1.30;;;0.53;;
4839;SDS011;2434;48.486;7.964;2023-05-10T13:04:07;1.00;;;0.50;;
4839;SDS011;2434;48.486;7.964;2023-05-10T13:06:35;1.10;;;0.50;;
4839;SDS011;2434;48.486;7.964;2023-05-10T13:09:04;1.30;;;0.70;;
4839;SDS011;2434;48.486;7.964;2023-05-10T13:11:33;1.73;;;0.60;;
4839;SDS011;2434;48.486;7.964;2023-05-10T13:14:01;3.37;;;0.87;;
4839;SDS011;2434;48.486;7.964;2023-05-10T13:16:30;2.90;;;1.00;;
4839;SDS011;2434;48.486;7.964;2023-05-10T13:18:59;1.73;;;0.80;;
4839;SDS011;2434;48.486;7.964;2023-05-10T13:21:27;1.70;;;0.60;;
4839;SDS011;2434;48.486;7.964;2023-05-10T13:23:55;4.63;;;0.60;;
4839;SDS011;2434;48.486;7.964;2023-05-10T13:26:24;1.10;;;0.57;;
4839;SDS011;2434;48.486;7.964;2023-05-10T13:28:54;3.00;;;0.60;;
4839;SDS011;2434;48.486;7.964;2023-05-10T13:31:22;3.67;;;0.70;;
4839;SDS011;2434;48.486;7.964;2023-05-10T13:33:51;3.77;;;0.70;;
4839;SDS011;2434;48.486;7.964;2023-05-10T13:36:20;1.10;;;0.60;;
4839;SDS011;2434;48.486;7.964;2023-05-10T13:38:49;1.27;;;0.50;;
4839;SDS011;2434;48.486;7.964;2023-05-10T13:41:17;2.33;;;0.60;;
4839;SDS011;2434;48.486;7.964;2023-05-10T13:43:45;3.13;;;0.60;;
4839;SDS011;2434;48.486;7.964;2023-05-10T13:46:16;4.20;;;1.33;;
4839;SDS011;2434;48.486;7.964;2023-05-10T13:48:45;2.23;;;0.77;;
4839;SDS011;2434;48.486;7.964;2023-05-10T13:51:13;2.07;;;0.70;;
4839;SDS011;2434;48.486;7.964;2023-05-10T13:53:42;2.40;;;0.57;;
4839;SDS011;2434;48.486;7.964;2023-05-10T13:56:10;2.50;;;0.63;;
4839;SDS011;2434;48.486;7.964;2023-05-10T13:58:38;1.73;;;0.60;;
4839;SDS011;2434;48.486;7.964;2023-05-10T14:01:06;1.60;;;0.90;;
4839;SDS011;2434;48.486;7.964;2023-05-10T14:03:36;2.30;;;0.70;;
4839;SDS011;2434;48.486;7.964;2023-05-10T14:06:04;5.60;;;0.50;;
4839;SDS011;2434;48.486;7.964;2023-05-10T14:08:33;0.90;;;0.40;;
4839;SDS011;2434;48.486;7.964;2023-05-10T14:11:02;2.47;;;1.00;;
4839;SDS011;2434;48.486;7.964;2023-05-10T14:13:30;2.00;;;0.70;;
4839;SDS011;2434;48.486;7.964;2023-05-10T14:15:59;2.03;;;0.50;;
4839;SDS011;2434;48.486;7.964;2023-05-10T14:18:28;1.10;;;0.60;;
4839;SDS011;2434;48.486;7.964;2023-05-10T14:20:57;1.70;;;0.83;;
4839;SDS011;2434;48.486;7.964;2023-05-10T14:23:26;3.10;;;0.80;;
4839;SDS011;2434;48.486;7.964;2023-05-10T14:25:55;1.23;;;0.60;;
4839;SDS011;2434;48.486;7.964;2023-05-10T14:28:23;5.00;;;0.70;;
4839;SDS011;2434;48.486;7.964;2023-05-10T14:30:52;2.70;;;0.70;;
4839;SDS011;2434;48.486;7.964;2023-05-10T14:33:20;1.63;;;0.80;;
4839;SDS011;2434;48.486;7.964;2023-05-10T14:35:48;6.83;;;0.70;;
4839;SDS011;2434;48.486;7.964;2023-05-10T14:38:18;3.00;;;0.93;;
4839;SDS011;2434;48.486;7.964;2023-05-10T14:40:46;2.50;;;0.87;;
4839;SDS011;2434;48.486;7.964;2023-05-10T14:43:14;2.13;;;0.60;;
4839;SDS011;2434;48.486;7.964;2023-05-10T14:45:42;2.33;;;0.80;;
4839;SDS011;2434;48.486;7.964;2023-05-10T14:48:11;1.37;;;0.60;;
4839;SDS011;2434;48.486;7.964;2023-05-10T14:50:41;1.57;;;0.70;;
4839;SDS011;2434;48.486;7.964;2023-05-10T14:53:10;2.53;;;0.63;;
4839;SDS011;2434;48.486;7.964;2023-05-10T14:55:40;1.00;;;0.60;;
4839;SDS011;2434;48.486;7.964;2023-05-10T14:58:08;4.30;;;0.87;;
4839;SDS011;2434;48.486;7.964;2023-05-10T15:00:36;4.77;;;0.70;;
4839;SDS011;2434;48.486;7.964;2023-05-10T15:03:07;2.23;;;0.80;;
4839;SDS011;2434;48.486;7.964;2023-05-10T15:05:36;1.83;;;0.70;;
4839;SDS011;2434;48.486;7.964;2023-05-10T15:08:04;1.93;;;0.67;;
4839;SDS011;2434;48.486;7.964;2023-05-10T15:10:33;8.70;;;1.20;;
4839;SDS011;2434;48.486;7.964;2023-05-10T15:13:02;5.43;;;0.67;;
4839;SDS011;2434;48.486;7.964;2023-05-10T15:15:31;3.43;;;0.83;;
4839;SDS011;2434;48.486;7.964;2023-05-10T15:17:59;3.30;;;0.80;;
4839;SDS011;2434;48.486;7.964;2023-05-10T15:20:28;3.47;;;0.70;;
4839;SDS011;2434;48.486;7.964;2023-05-10T15:22:56;1.97;;;0.60;;
4839;SDS011;2434;48.486;7.964;2023-05-10T15:25:24;2.10;;;1.00;;
4839;SDS011;2434;48.486;7.964;2023-05-10T15:27:52;1.63;;;0.70;;
4839;SDS011;2434;48.486;7.964;2023-05-10T15:30:22;1.87;;;0.60;;
4839;SDS011;2434;48.486;7.964;2023-05-10T15:32:50;3.53;;;0.60;;